sensor_id;sensor_type;location;lat;lon;timestamp;P1;durP1;ratioP1;P2;durP2;ratioP2
38549;SDS011;24322;52.004;5.948;2022-07-29T00:00:52;1.95;;;0.95;;
38549;SDS011;24322;52.004;5.948;2022-07-29T00:03:18;5.32;;;1.75;;
38549;SDS011;24322;52.004;5.948;2022-07-29T00:05:43;4.55;;;1.98;;
38549;SDS011;24322;52.004;5.948;2022-07-29T00:08:09;1.60;;;0.90;;
38549;SDS011;24322;52.004;5.948;2022-07-29T00:10:35;3.60;;;1.30;;
38549;SDS011;24322;52.004;5.948;2022-07-29T00:13:01;3.75;;;1.05;;
38549;SDS011;24322;52.004;5.948;2022-07-29T00:15:27;3.17;;;1.40;;
38549;SDS011;24322;52.004;5.948;2022-07-29T00:17:53;1.67;;;0.90;;
38549;SDS011;24322;52.004;5.948;2022-07-29T00:20:19;1.48;;;0.98;;
38549;SDS011;24322;52.004;5.948;2022-07-29T00:22:45;3.13;;;1.10;;
38549;SDS011;24322;52.004;5.948;2022-07-29T00:25:11;2.38;;;1.20;;
38549;SDS011;24322;52.004;5.948;2022-07-29T00:27:37;2.05;;;1.20;;
38549;SDS011;24322;52.004;5.948;2022-07-29T00:30:04;1.85;;;1.35;;
38549;SDS011;24322;52.004;5.948;2022-07-29T00:32:31;2.65;;;1.10;;
38549;SDS011;24322;52.004;5.948;2022-07-29T00:34:57;3.70;;;1.58;;
38549;SDS011;24322;52.004;5.948;2022-07-29T00:37:41;2.28;;;1.05;;
38549;SDS011;24322;52.004;5.948;2022-07-29T00:40:07;3.17;;;1.45;;
38549;SDS011;24322;52.004;5.948;2022-07-29T00:42:45;3.88;;;1.83;;
38549;SDS011;24322;52.004;5.948;2022-07-29T00:45:13;4.88;;;1.30;;
38549;SDS011;24322;52.004;5.948;2022-07-29T00:47:39;3.05;;;1.27;;
38549;SDS011;24322;52.004;5.948;2022-07-29T00:50:06;2.67;;;1.50;;
38549;SDS011;24322;52.004;5.948;2022-07-29T00:52:33;5.22;;;1.45;;
38549;SDS011;24322;52.004;5.948;2022-07-29T00:55:05;4.68;;;1.02;;
38549;SDS011;24322;52.004;5.948;2022-07-29T00:57:33;4.82;;;1.77;;
38549;SDS011;24322;52.004;5.948;2022-07-29T00:59:59;2.90;;;1.30;;
38549;SDS011;24322;52.004;5.948;2022-07-29T01:02:25;3.00;;;1.70;;
38549;SDS011;24322;52.004;5.948;2022-07-29T01:04:51;2.53;;;1.23;;
38549;SDS011;24322;52.004;5.948;2022-07-29T01:07:18;3.70;;;1.48;;
38549;SDS011;24322;52.004;5.948;2022-07-29T01:09:44;2.35;;;1.75;;
38549;SDS011;24322;52.004;5.948;2022-07-29T01:12:12;4.53;;;1.80;;
38549;SDS011;24322;52.004;5.948;2022-07-29T01:14:41;4.55;;;1.65;;
38549;SDS011;24322;52.004;5.948;2022-07-29T01:17:10;4.07;;;1.50;;
38549;SDS011;24322;52.004;5.948;2022-07-29T01:30:22;5.07;;;2.55;;
38549;SDS011;24322;52.004;5.948;2022-07-29T01:32:50;3.15;;;1.80;;
38549;SDS011;24322;52.004;5.948;2022-07-29T01:35:42;3.33;;;1.55;;
38549;SDS011;24322;52.004;5.948;2022-07-29T01:38:09;5.25;;;1.45;;
38549;SDS011;24322;52.004;5.948;2022-07-29T01:40:49;5.05;;;1.80;;
38549;SDS011;24322;52.004;5.948;2022-07-29T01:43:20;2.42;;;1.38;;
38549;SDS011;24322;52.004;5.948;2022-07-29T01:45:58;4.05;;;1.50;;
38549;SDS011;24322;52.004;5.948;2022-07-29T01:48:33;2.47;;;1.33;;
38549;SDS011;24322;52.004;5.948;2022-07-29T01:51:04;3.47;;;1.20;;
38549;SDS011;24322;52.004;5.948;2022-07-29T01:53:42;3.88;;;1.52;;
38549;SDS011;24322;52.004;5.948;2022-07-29T01:56:12;2.75;;;1.20;;
38549;SDS011;24322;52.004;5.948;2022-07-29T01:58:39;3.70;;;1.40;;
38549;SDS011;24322;52.004;5.948;2022-07-29T02:01:08;4.25;;;1.70;;
38549;SDS011;24322;52.004;5.948;2022-07-29T02:03:36;2.78;;;1.20;;
38549;SDS011;24322;52.004;5.948;2022-07-29T02:06:04;2.65;;;1.30;;
38549;SDS011;24322;52.004;5.948;2022-07-29T02:08:32;4.68;;;1.20;;
38549;SDS011;24322;52.004;5.948;2022-07-29T02:10:59;5.45;;;1.50;;
38549;SDS011;24322;52.004;5.948;2022-07-29T02:13:27;3.83;;;1.52;;
38549;SDS011;24322;52.004;5.948;2022-07-29T02:15:53;2.15;;;1.50;;
38549;SDS011;24322;52.004;5.948;2022-07-29T02:18:22;2.15;;;1.15;;
38549;SDS011;24322;52.004;5.948;2022-07-29T02:20:50;2.70;;;1.38;;
38549;SDS011;24322;52.004;5.948;2022-07-29T02:23:23;3.53;;;1.42;;
38549;SDS011;24322;52.004;5.948;2022-07-29T02:25:51;3.25;;;1.00;;
38549;SDS011;24322;52.004;5.948;2022-07-29T02:28:20;3.83;;;1.52;;
38549;SDS011;24322;52.004;5.948;2022-07-29T02:30:49;2.67;;;1.15;;
38549;SDS011;24322;52.004;5.948;2022-07-29T02:33:17;2.95;;;1.50;;
38549;SDS011;24322;52.004;5.948;2022-07-29T02:35:45;3.30;;;1.45;;
38549;SDS011;24322;52.004;5.948;2022-07-29T02:38:13;1.95;;;1.23;;
38549;SDS011;24322;52.004;5.948;2022-07-29T02:41:08;5.05;;;2.00;;
38549;SDS011;24322;52.004;5.948;2022-07-29T02:43:36;3.55;;;2.08;;
38549;SDS011;24322;52.004;5.948;2022-07-29T02:46:07;2.15;;;1.20;;
38549;SDS011;24322;52.004;5.948;2022-07-29T02:48:38;3.47;;;1.40;;
38549;SDS011;24322;52.004;5.948;2022-07-29T02:51:16;3.20;;;1.45;;
38549;SDS011;24322;52.004;5.948;2022-07-29T02:53:47;3.38;;;1.75;;
38549;SDS011;24322;52.004;5.948;2022-07-29T02:56:16;1.60;;;1.35;;
38549;SDS011;24322;52.004;5.948;2022-07-29T02:58:49;4.05;;;1.60;;
38549;SDS011;24322;52.004;5.948;2022-07-29T03:01:21;3.00;;;1.30;;
38549;SDS011;24322;52.004;5.948;2022-07-29T03:03:49;4.03;;;1.50;;
38549;SDS011;24322;52.004;5.948;2022-07-29T03:06:17;3.53;;;1.48;;
38549;SDS011;24322;52.004;5.948;2022-07-29T03:08:46;3.55;;;1.85;;
38549;SDS011;24322;52.004;5.948;2022-07-29T03:11:12;2.53;;;1.63;;
38549;SDS011;24322;52.004;5.948;2022-07-29T03:13:39;3.72;;;1.63;;
38549;SDS011;24322;52.004;5.948;2022-07-29T03:16:06;2.47;;;1.60;;
38549;SDS011;24322;52.004;5.948;2022-07-29T03:18:33;3.08;;;1.75;;
38549;SDS011;24322;52.004;5.948;2022-07-29T03:21:00;6.22;;;1.50;;
38549;SDS011;24322;52.004;5.948;2022-07-29T03:23:26;4.57;;;1.67;;
38549;SDS011;24322;52.004;5.948;2022-07-29T03:25:52;4.40;;;2.20;;
38549;SDS011;24322;52.004;5.948;2022-07-29T03:28:19;7.07;;;2.63;;
38549;SDS011;24322;52.004;5.948;2022-07-29T03:30:45;6.20;;;2.35;;
38549;SDS011;24322;52.004;5.948;2022-07-29T03:33:11;6.22;;;2.67;;
38549;SDS011;24322;52.004;5.948;2022-07-29T03:35:37;5.53;;;2.30;;
38549;SDS011;24322;52.004;5.948;2022-07-29T03:38:03;4.47;;;2.17;;
38549;SDS011;24322;52.004;5.948;2022-07-29T03:40:37;4.63;;;2.40;;
38549;SDS011;24322;52.004;5.948;2022-07-29T03:43:09;3.80;;;2.70;;
38549;SDS011;24322;52.004;5.948;2022-07-29T03:45:36;8.63;;;3.10;;
38549;SDS011;24322;52.004;5.948;2022-07-29T03:48:07;5.83;;;2.93;;
38549;SDS011;24322;52.004;5.948;2022-07-29T03:50:35;5.43;;;2.97;;
38549;SDS011;24322;52.004;5.948;2022-07-29T03:53:01;6.77;;;2.90;;
38549;SDS011;24322;52.004;5.948;2022-07-29T03:55:28;9.37;;;3.27;;
38549;SDS011;24322;52.004;5.948;2022-07-29T03:57:57;7.20;;;3.37;;
38549;SDS011;24322;52.004;5.948;2022-07-29T04:00:25;6.47;;;3.33;;
38549;SDS011;24322;52.004;5.948;2022-07-29T04:02:52;7.57;;;3.10;;
38549;SDS011;24322;52.004;5.948;2022-07-29T04:05:17;6.73;;;2.70;;
38549;SDS011;24322;52.004;5.948;2022-07-29T04:07:47;4.77;;;2.90;;
38549;SDS011;24322;52.004;5.948;2022-07-29T04:10:13;4.47;;;2.77;;
38549;SDS011;24322;52.004;5.948;2022-07-29T04:12:42;6.00;;;3.33;;
38549;SDS011;24322;52.004;5.948;2022-07-29T04:15:08;7.03;;;3.10;;
38549;SDS011;24322;52.004;5.948;2022-07-29T04:17:34;8.53;;;2.80;;
38549;SDS011;24322;52.004;5.948;2022-07-29T04:20:00;6.53;;;3.37;;
38549;SDS011;24322;52.004;5.948;2022-07-29T04:22:25;6.10;;;2.83;;
38549;SDS011;24322;52.004;5.948;2022-07-29T04:24:51;4.83;;;3.03;;
38549;SDS011;24322;52.004;5.948;2022-07-29T04:27:16;5.90;;;3.00;;
38549;SDS011;24322;52.004;5.948;2022-07-29T04:29:42;5.73;;;2.90;;
38549;SDS011;24322;52.004;5.948;2022-07-29T04:32:08;7.50;;;3.93;;
38549;SDS011;24322;52.004;5.948;2022-07-29T04:34:33;6.67;;;3.27;;
38549;SDS011;24322;52.004;5.948;2022-07-29T04:36:59;5.88;;;3.10;;
38549;SDS011;24322;52.004;5.948;2022-07-29T04:39:25;6.30;;;3.27;;
38549;SDS011;24322;52.004;5.948;2022-07-29T04:41:51;7.17;;;4.13;;
38549;SDS011;24322;52.004;5.948;2022-07-29T04:44:16;5.30;;;2.90;;
38549;SDS011;24322;52.004;5.948;2022-07-29T04:46:42;7.00;;;2.57;;
38549;SDS011;24322;52.004;5.948;2022-07-29T04:49:08;5.20;;;2.63;;
38549;SDS011;24322;52.004;5.948;2022-07-29T04:51:34;6.70;;;3.07;;
38549;SDS011;24322;52.004;5.948;2022-07-29T04:53:59;8.90;;;3.83;;
38549;SDS011;24322;52.004;5.948;2022-07-29T04:56:25;6.90;;;3.93;;
38549;SDS011;24322;52.004;5.948;2022-07-29T04:58:51;7.80;;;3.90;;
38549;SDS011;24322;52.004;5.948;2022-07-29T05:01:17;5.33;;;3.40;;
38549;SDS011;24322;52.004;5.948;2022-07-29T05:03:43;7.93;;;3.60;;
38549;SDS011;24322;52.004;5.948;2022-07-29T05:06:10;6.37;;;2.90;;
38549;SDS011;24322;52.004;5.948;2022-07-29T05:08:36;6.43;;;3.10;;
38549;SDS011;24322;52.004;5.948;2022-07-29T05:11:01;6.53;;;3.13;;
38549;SDS011;24322;52.004;5.948;2022-07-29T05:13:28;5.07;;;2.33;;
38549;SDS011;24322;52.004;5.948;2022-07-29T05:15:54;6.97;;;3.37;;
38549;SDS011;24322;52.004;5.948;2022-07-29T05:18:20;6.07;;;3.13;;
38549;SDS011;24322;52.004;5.948;2022-07-29T05:20:45;6.23;;;3.37;;
38549;SDS011;24322;52.004;5.948;2022-07-29T05:23:11;5.00;;;2.80;;
38549;SDS011;24322;52.004;5.948;2022-07-29T05:25:39;5.17;;;2.63;;
38549;SDS011;24322;52.004;5.948;2022-07-29T05:28:05;5.23;;;2.33;;
38549;SDS011;24322;52.004;5.948;2022-07-29T05:30:31;6.47;;;2.85;;
38549;SDS011;24322;52.004;5.948;2022-07-29T05:32:57;4.67;;;2.53;;
38549;SDS011;24322;52.004;5.948;2022-07-29T05:35:22;4.97;;;2.90;;
38549;SDS011;24322;52.004;5.948;2022-07-29T05:37:48;3.92;;;2.58;;
38549;SDS011;24322;52.004;5.948;2022-07-29T05:40:13;6.17;;;2.60;;
38549;SDS011;24322;52.004;5.948;2022-07-29T05:42:39;4.40;;;2.53;;
38549;SDS011;24322;52.004;5.948;2022-07-29T05:45:05;4.43;;;2.67;;
38549;SDS011;24322;52.004;5.948;2022-07-29T05:47:31;4.60;;;2.67;;
38549;SDS011;24322;52.004;5.948;2022-07-29T05:49:57;7.45;;;2.97;;
38549;SDS011;24322;52.004;5.948;2022-07-29T05:52:22;8.77;;;3.75;;
38549;SDS011;24322;52.004;5.948;2022-07-29T05:54:48;6.53;;;3.65;;
38549;SDS011;24322;52.004;5.948;2022-07-29T05:57:15;5.68;;;3.20;;
38549;SDS011;24322;52.004;5.948;2022-07-29T05:59:45;5.05;;;3.38;;
38549;SDS011;24322;52.004;5.948;2022-07-29T06:02:10;6.40;;;3.33;;
38549;SDS011;24322;52.004;5.948;2022-07-29T06:04:36;6.65;;;3.10;;
38549;SDS011;24322;52.004;5.948;2022-07-29T06:07:02;5.13;;;2.80;;
38549;SDS011;24322;52.004;5.948;2022-07-29T06:09:28;7.22;;;3.30;;
38549;SDS011;24322;52.004;5.948;2022-07-29T06:11:53;8.10;;;3.25;;
38549;SDS011;24322;52.004;5.948;2022-07-29T06:14:19;7.53;;;3.00;;
38549;SDS011;24322;52.004;5.948;2022-07-29T06:16:45;7.47;;;3.33;;
38549;SDS011;24322;52.004;5.948;2022-07-29T06:19:10;8.50;;;4.05;;
38549;SDS011;24322;52.004;5.948;2022-07-29T06:21:36;7.55;;;3.85;;
38549;SDS011;24322;52.004;5.948;2022-07-29T06:24:13;5.97;;;2.42;;
38549;SDS011;24322;52.004;5.948;2022-07-29T06:26:40;5.72;;;2.72;;
38549;SDS011;24322;52.004;5.948;2022-07-29T06:29:07;10.90;;;3.72;;
38549;SDS011;24322;52.004;5.948;2022-07-29T06:31:35;4.10;;;2.30;;
38549;SDS011;24322;52.004;5.948;2022-07-29T06:34:01;4.72;;;2.58;;
38549;SDS011;24322;52.004;5.948;2022-07-29T06:36:27;5.72;;;2.60;;
38549;SDS011;24322;52.004;5.948;2022-07-29T06:38:52;4.05;;;2.60;;
38549;SDS011;24322;52.004;5.948;2022-07-29T06:41:18;5.20;;;2.53;;
38549;SDS011;24322;52.004;5.948;2022-07-29T06:43:44;2.45;;;1.90;;
38549;SDS011;24322;52.004;5.948;2022-07-29T06:46:11;3.22;;;2.15;;
38549;SDS011;24322;52.004;5.948;2022-07-29T06:48:39;3.85;;;1.92;;
38549;SDS011;24322;52.004;5.948;2022-07-29T06:51:06;3.83;;;2.15;;
38549;SDS011;24322;52.004;5.948;2022-07-29T06:53:33;4.15;;;2.08;;
38549;SDS011;24322;52.004;5.948;2022-07-29T06:55:59;5.93;;;2.33;;
38549;SDS011;24322;52.004;5.948;2022-07-29T06:58:26;3.13;;;2.03;;
38549;SDS011;24322;52.004;5.948;2022-07-29T07:00:52;4.82;;;2.53;;
38549;SDS011;24322;52.004;5.948;2022-07-29T07:03:18;7.72;;;2.55;;
38549;SDS011;24322;52.004;5.948;2022-07-29T07:05:44;3.33;;;2.03;;
38549;SDS011;24322;52.004;5.948;2022-07-29T07:08:10;8.00;;;2.72;;
38549;SDS011;24322;52.004;5.948;2022-07-29T07:10:37;4.50;;;2.10;;
38549;SDS011;24322;52.004;5.948;2022-07-29T07:13:03;3.08;;;1.52;;
38549;SDS011;24322;52.004;5.948;2022-07-29T07:15:30;4.85;;;2.08;;
38549;SDS011;24322;52.004;5.948;2022-07-29T07:17:55;4.68;;;2.42;;
38549;SDS011;24322;52.004;5.948;2022-07-29T07:20:22;5.80;;;2.53;;
38549;SDS011;24322;52.004;5.948;2022-07-29T07:22:48;4.60;;;2.25;;
38549;SDS011;24322;52.004;5.948;2022-07-29T07:25:14;6.03;;;2.40;;
38549;SDS011;24322;52.004;5.948;2022-07-29T07:27:40;3.42;;;2.35;;
38549;SDS011;24322;52.004;5.948;2022-07-29T07:30:06;5.18;;;2.47;;
38549;SDS011;24322;52.004;5.948;2022-07-29T07:32:32;7.97;;;2.00;;
38549;SDS011;24322;52.004;5.948;2022-07-29T07:34:58;2.65;;;1.92;;
38549;SDS011;24322;52.004;5.948;2022-07-29T07:37:24;5.60;;;2.53;;
38549;SDS011;24322;52.004;5.948;2022-07-29T07:39:51;6.85;;;1.40;;
38549;SDS011;24322;52.004;5.948;2022-07-29T07:42:17;5.57;;;2.22;;
38549;SDS011;24322;52.004;5.948;2022-07-29T07:44:43;2.40;;;1.70;;
38549;SDS011;24322;52.004;5.948;2022-07-29T07:47:10;4.35;;;1.77;;
38549;SDS011;24322;52.004;5.948;2022-07-29T07:49:37;5.45;;;2.17;;
38549;SDS011;24322;52.004;5.948;2022-07-29T07:52:02;1.85;;;1.20;;
38549;SDS011;24322;52.004;5.948;2022-07-29T07:54:28;4.63;;;2.03;;
38549;SDS011;24322;52.004;5.948;2022-07-29T07:56:54;4.95;;;2.50;;
38549;SDS011;24322;52.004;5.948;2022-07-29T07:59:20;4.95;;;1.90;;
38549;SDS011;24322;52.004;5.948;2022-07-29T08:01:45;3.85;;;1.90;;
38549;SDS011;24322;52.004;5.948;2022-07-29T08:04:11;3.38;;;1.83;;
38549;SDS011;24322;52.004;5.948;2022-07-29T08:06:36;4.18;;;1.92;;
38549;SDS011;24322;52.004;5.948;2022-07-29T08:09:03;6.90;;;2.42;;
38549;SDS011;24322;52.004;5.948;2022-07-29T08:11:29;5.78;;;2.30;;
38549;SDS011;24322;52.004;5.948;2022-07-29T08:13:55;2.95;;;1.70;;
38549;SDS011;24322;52.004;5.948;2022-07-29T08:16:21;3.67;;;1.70;;
38549;SDS011;24322;52.004;5.948;2022-07-29T08:18:47;5.65;;;2.00;;
38549;SDS011;24322;52.004;5.948;2022-07-29T08:21:13;3.97;;;2.05;;
38549;SDS011;24322;52.004;5.948;2022-07-29T08:23:39;2.17;;;1.48;;
38549;SDS011;24322;52.004;5.948;2022-07-29T08:26:11;4.28;;;2.00;;
38549;SDS011;24322;52.004;5.948;2022-07-29T08:28:38;3.67;;;2.03;;
38549;SDS011;24322;52.004;5.948;2022-07-29T08:31:05;3.70;;;1.63;;
38549;SDS011;24322;52.004;5.948;2022-07-29T08:33:31;4.28;;;1.55;;
38549;SDS011;24322;52.004;5.948;2022-07-29T08:35:57;3.90;;;1.90;;
38549;SDS011;24322;52.004;5.948;2022-07-29T08:38:22;5.85;;;2.08;;
38549;SDS011;24322;52.004;5.948;2022-07-29T08:40:48;4.53;;;1.73;;
38549;SDS011;24322;52.004;5.948;2022-07-29T08:43:14;4.20;;;1.90;;
38549;SDS011;24322;52.004;5.948;2022-07-29T08:45:46;6.38;;;2.17;;
38549;SDS011;24322;52.004;5.948;2022-07-29T08:48:14;6.07;;;2.17;;
38549;SDS011;24322;52.004;5.948;2022-07-29T08:50:42;7.68;;;2.08;;
38549;SDS011;24322;52.004;5.948;2022-07-29T08:53:12;2.92;;;1.58;;
38549;SDS011;24322;52.004;5.948;2022-07-29T08:55:39;6.22;;;1.67;;
38549;SDS011;24322;52.004;5.948;2022-07-29T08:58:07;3.67;;;2.08;;
38549;SDS011;24322;52.004;5.948;2022-07-29T09:00:34;5.40;;;2.17;;
38549;SDS011;24322;52.004;5.948;2022-07-29T09:03:02;2.15;;;1.45;;
38549;SDS011;24322;52.004;5.948;2022-07-29T09:05:29;2.78;;;2.08;;
38549;SDS011;24322;52.004;5.948;2022-07-29T09:07:56;4.22;;;2.17;;
38549;SDS011;24322;52.004;5.948;2022-07-29T09:10:22;2.60;;;1.58;;
38549;SDS011;24322;52.004;5.948;2022-07-29T09:12:48;4.13;;;2.00;;
38549;SDS011;24322;52.004;5.948;2022-07-29T09:15:14;5.47;;;1.67;;
38549;SDS011;24322;52.004;5.948;2022-07-29T09:17:40;6.38;;;1.92;;
38549;SDS011;24322;52.004;5.948;2022-07-29T09:20:14;2.53;;;1.50;;
38549;SDS011;24322;52.004;5.948;2022-07-29T09:22:40;3.85;;;1.83;;
38549;SDS011;24322;52.004;5.948;2022-07-29T09:25:06;5.70;;;1.83;;
38549;SDS011;24322;52.004;5.948;2022-07-29T09:27:32;3.97;;;1.75;;
38549;SDS011;24322;52.004;5.948;2022-07-29T09:29:59;3.28;;;1.90;;
38549;SDS011;24322;52.004;5.948;2022-07-29T09:32:53;3.35;;;1.77;;
38549;SDS011;24322;52.004;5.948;2022-07-29T09:35:24;3.60;;;1.65;;
38549;SDS011;24322;52.004;5.948;2022-07-29T09:37:50;3.80;;;2.10;;
38549;SDS011;24322;52.004;5.948;2022-07-29T09:42:43;4.78;;;2.72;;
38549;SDS011;24322;52.004;5.948;2022-07-29T09:45:09;5.35;;;2.35;;
38549;SDS011;24322;52.004;5.948;2022-07-29T09:47:44;4.88;;;2.70;;
38549;SDS011;24322;52.004;5.948;2022-07-29T09:50:11;7.30;;;3.03;;
38549;SDS011;24322;52.004;5.948;2022-07-29T09:52:50;3.80;;;2.28;;
38549;SDS011;24322;52.004;5.948;2022-07-29T09:55:17;4.60;;;2.25;;
38549;SDS011;24322;52.004;5.948;2022-07-29T09:57:44;2.47;;;1.80;;
38549;SDS011;24322;52.004;5.948;2022-07-29T10:00:14;3.88;;;2.10;;
38549;SDS011;24322;52.004;5.948;2022-07-29T10:02:43;3.60;;;2.20;;
38549;SDS011;24322;52.004;5.948;2022-07-29T10:05:16;4.22;;;2.45;;
38549;SDS011;24322;52.004;5.948;2022-07-29T10:10:08;6.05;;;2.10;;
38549;SDS011;24322;52.004;5.948;2022-07-29T10:12:34;5.53;;;2.55;;
38549;SDS011;24322;52.004;5.948;2022-07-29T10:15:24;6.47;;;2.60;;
38549;SDS011;24322;52.004;5.948;2022-07-29T10:17:52;3.72;;;2.10;;
38549;SDS011;24322;52.004;5.948;2022-07-29T10:20:20;8.30;;;2.20;;
38549;SDS011;24322;52.004;5.948;2022-07-29T10:22:47;3.60;;;2.15;;
38549;SDS011;24322;52.004;5.948;2022-07-29T10:25:14;6.15;;;2.78;;
38549;SDS011;24322;52.004;5.948;2022-07-29T10:27:41;3.60;;;2.10;;
38549;SDS011;24322;52.004;5.948;2022-07-29T10:30:07;5.50;;;1.60;;
38549;SDS011;24322;52.004;5.948;2022-07-29T10:38:43;3.22;;;1.80;;
38549;SDS011;24322;52.004;5.948;2022-07-29T10:46:26;7.20;;;2.15;;
38549;SDS011;24322;52.004;5.948;2022-07-29T10:54:19;2.28;;;1.25;;
38549;SDS011;24322;52.004;5.948;2022-07-29T11:04:59;5.55;;;1.85;;
38549;SDS011;24322;52.004;5.948;2022-07-29T11:07:29;4.45;;;1.58;;
38549;SDS011;24322;52.004;5.948;2022-07-29T11:15:08;2.50;;;1.17;;
38549;SDS011;24322;52.004;5.948;2022-07-29T11:26:27;4.38;;;1.58;;
38549;SDS011;24322;52.004;5.948;2022-07-29T11:37:13;3.97;;;1.58;;
38549;SDS011;24322;52.004;5.948;2022-07-29T11:47:25;2.92;;;1.13;;
38549;SDS011;24322;52.004;5.948;2022-07-29T11:49:52;3.17;;;1.30;;
38549;SDS011;24322;52.004;5.948;2022-07-29T11:52:20;4.55;;;1.45;;
38549;SDS011;24322;52.004;5.948;2022-07-29T11:54:49;2.80;;;1.25;;
38549;SDS011;24322;52.004;5.948;2022-07-29T11:57:16;5.68;;;1.60;;
38549;SDS011;24322;52.004;5.948;2022-07-29T11:59:43;5.78;;;1.63;;
38549;SDS011;24322;52.004;5.948;2022-07-29T12:02:11;3.03;;;1.17;;
38549;SDS011;24322;52.004;5.948;2022-07-29T12:04:50;5.10;;;1.55;;
38549;SDS011;24322;52.004;5.948;2022-07-29T12:09:55;5.15;;;1.40;;
38549;SDS011;24322;52.004;5.948;2022-07-29T12:12:21;5.13;;;1.60;;
38549;SDS011;24322;52.004;5.948;2022-07-29T12:14:48;2.67;;;1.20;;
38549;SDS011;24322;52.004;5.948;2022-07-29T12:17:30;3.58;;;1.30;;
38549;SDS011;24322;52.004;5.948;2022-07-29T12:19:58;3.40;;;1.92;;
38549;SDS011;24322;52.004;5.948;2022-07-29T12:22:28;2.70;;;1.60;;
38549;SDS011;24322;52.004;5.948;2022-07-29T12:24:59;2.95;;;1.08;;
38549;SDS011;24322;52.004;5.948;2022-07-29T12:27:27;2.05;;;1.25;;
38549;SDS011;24322;52.004;5.948;2022-07-29T12:30:00;4.50;;;1.30;;
38549;SDS011;24322;52.004;5.948;2022-07-29T12:32:33;2.55;;;1.48;;
38549;SDS011;24322;52.004;5.948;2022-07-29T12:35:02;5.82;;;1.58;;
38549;SDS011;24322;52.004;5.948;2022-07-29T12:37:54;3.15;;;1.33;;
38549;SDS011;24322;52.004;5.948;2022-07-29T12:40:20;3.28;;;1.30;;
38549;SDS011;24322;52.004;5.948;2022-07-29T12:43:09;2.55;;;1.35;;
38549;SDS011;24322;52.004;5.948;2022-07-29T12:45:39;4.88;;;1.05;;
38549;SDS011;24322;52.004;5.948;2022-07-29T12:48:06;2.58;;;1.30;;
38549;SDS011;24322;52.004;5.948;2022-07-29T12:50:36;3.15;;;1.60;;
38549;SDS011;24322;52.004;5.948;2022-07-29T12:53:16;3.75;;;1.30;;
38549;SDS011;24322;52.004;5.948;2022-07-29T12:55:49;8.18;;;1.42;;
38549;SDS011;24322;52.004;5.948;2022-07-29T12:58:32;2.72;;;1.23;;
38549;SDS011;24322;52.004;5.948;2022-07-29T13:03:29;5.75;;;1.13;;
38549;SDS011;24322;52.004;5.948;2022-07-29T13:06:29;2.27;;;1.07;;
38549;SDS011;24322;52.004;5.948;2022-07-29T13:09:18;2.28;;;1.08;;
38549;SDS011;24322;52.004;5.948;2022-07-29T13:11:51;5.32;;;1.20;;
38549;SDS011;24322;52.004;5.948;2022-07-29T13:14:34;1.38;;;0.90;;
38549;SDS011;24322;52.004;5.948;2022-07-29T13:19:42;4.50;;;1.40;;
38549;SDS011;24322;52.004;5.948;2022-07-29T13:22:09;2.53;;;1.02;;
38549;SDS011;24322;52.004;5.948;2022-07-29T13:24:58;3.47;;;1.30;;
38549;SDS011;24322;52.004;5.948;2022-07-29T13:27:28;2.45;;;1.25;;
38549;SDS011;24322;52.004;5.948;2022-07-29T13:29:57;1.85;;;1.13;;
38549;SDS011;24322;52.004;5.948;2022-07-29T13:32:24;2.70;;;1.20;;
38549;SDS011;24322;52.004;5.948;2022-07-29T13:34:52;2.63;;;1.17;;
38549;SDS011;24322;52.004;5.948;2022-07-29T13:37:18;3.00;;;1.05;;
38549;SDS011;24322;52.004;5.948;2022-07-29T13:39:44;1.92;;;1.10;;
38549;SDS011;24322;52.004;5.948;2022-07-29T13:42:10;2.97;;;1.30;;
38549;SDS011;24322;52.004;5.948;2022-07-29T13:44:38;1.20;;;0.80;;
38549;SDS011;24322;52.004;5.948;2022-07-29T13:47:04;2.63;;;1.00;;
38549;SDS011;24322;52.004;5.948;2022-07-29T13:49:31;2.03;;;1.10;;
38549;SDS011;24322;52.004;5.948;2022-07-29T13:51:56;2.63;;;0.85;;
38549;SDS011;24322;52.004;5.948;2022-07-29T13:54:22;2.60;;;1.20;;
38549;SDS011;24322;52.004;5.948;2022-07-29T13:56:49;2.28;;;1.05;;
38549;SDS011;24322;52.004;5.948;2022-07-29T13:59:16;4.10;;;1.10;;
38549;SDS011;24322;52.004;5.948;2022-07-29T14:01:41;4.97;;;1.50;;
38549;SDS011;24322;52.004;5.948;2022-07-29T14:04:08;4.15;;;1.27;;
38549;SDS011;24322;52.004;5.948;2022-07-29T14:06:35;4.72;;;1.05;;
38549;SDS011;24322;52.004;5.948;2022-07-29T14:09:01;4.07;;;1.25;;
38549;SDS011;24322;52.004;5.948;2022-07-29T14:11:31;1.83;;;1.02;;
38549;SDS011;24322;52.004;5.948;2022-07-29T14:13:57;1.90;;;0.90;;
38549;SDS011;24322;52.004;5.948;2022-07-29T14:16:23;2.80;;;1.23;;
38549;SDS011;24322;52.004;5.948;2022-07-29T14:18:48;1.88;;;1.00;;
38549;SDS011;24322;52.004;5.948;2022-07-29T14:21:14;3.95;;;1.33;;
38549;SDS011;24322;52.004;5.948;2022-07-29T14:23:40;3.40;;;1.13;;
38549;SDS011;24322;52.004;5.948;2022-07-29T14:26:05;3.58;;;1.27;;
38549;SDS011;24322;52.004;5.948;2022-07-29T14:28:31;2.90;;;1.25;;
38549;SDS011;24322;52.004;5.948;2022-07-29T14:30:57;1.67;;;1.05;;
38549;SDS011;24322;52.004;5.948;2022-07-29T14:33:23;4.40;;;1.23;;
38549;SDS011;24322;52.004;5.948;2022-07-29T14:35:48;1.25;;;0.98;;
38549;SDS011;24322;52.004;5.948;2022-07-29T14:38:14;1.73;;;0.82;;
38549;SDS011;24322;52.004;5.948;2022-07-29T14:40:39;4.82;;;1.30;;
38549;SDS011;24322;52.004;5.948;2022-07-29T14:43:05;2.60;;;1.17;;
38549;SDS011;24322;52.004;5.948;2022-07-29T14:45:31;2.70;;;1.17;;
38549;SDS011;24322;52.004;5.948;2022-07-29T14:47:56;1.88;;;1.10;;
38549;SDS011;24322;52.004;5.948;2022-07-29T14:50:22;3.33;;;0.98;;
38549;SDS011;24322;52.004;5.948;2022-07-29T14:52:48;2.80;;;1.20;;
38549;SDS011;24322;52.004;5.948;2022-07-29T14:55:13;3.70;;;1.48;;
38549;SDS011;24322;52.004;5.948;2022-07-29T14:57:39;2.45;;;1.08;;
38549;SDS011;24322;52.004;5.948;2022-07-29T15:00:05;2.05;;;1.10;;
38549;SDS011;24322;52.004;5.948;2022-07-29T15:02:32;6.93;;;1.55;;
38549;SDS011;24322;52.004;5.948;2022-07-29T15:04:58;2.35;;;1.10;;
38549;SDS011;24322;52.004;5.948;2022-07-29T15:07:24;4.78;;;1.38;;
38549;SDS011;24322;52.004;5.948;2022-07-29T15:09:50;1.73;;;0.75;;
38549;SDS011;24322;52.004;5.948;2022-07-29T15:12:16;3.65;;;1.02;;
38549;SDS011;24322;52.004;5.948;2022-07-29T15:14:42;2.60;;;1.50;;
38549;SDS011;24322;52.004;5.948;2022-07-29T15:17:07;1.67;;;1.13;;
38549;SDS011;24322;52.004;5.948;2022-07-29T15:19:33;3.35;;;1.33;;
38549;SDS011;24322;52.004;5.948;2022-07-29T15:21:59;2.17;;;0.98;;
38549;SDS011;24322;52.004;5.948;2022-07-29T15:24:25;3.05;;;1.25;;
38549;SDS011;24322;52.004;5.948;2022-07-29T15:26:51;4.78;;;1.50;;
38549;SDS011;24322;52.004;5.948;2022-07-29T15:29:16;2.65;;;1.48;;
38549;SDS011;24322;52.004;5.948;2022-07-29T15:31:42;1.67;;;1.00;;
38549;SDS011;24322;52.004;5.948;2022-07-29T15:34:08;2.83;;;1.10;;
38549;SDS011;24322;52.004;5.948;2022-07-29T15:36:34;2.58;;;1.02;;
38549;SDS011;24322;52.004;5.948;2022-07-29T15:38:59;3.90;;;1.27;;
38549;SDS011;24322;52.004;5.948;2022-07-29T15:41:26;2.67;;;1.13;;
38549;SDS011;24322;52.004;5.948;2022-07-29T15:43:51;3.03;;;1.10;;
38549;SDS011;24322;52.004;5.948;2022-07-29T15:46:17;2.47;;;1.00;;
38549;SDS011;24322;52.004;5.948;2022-07-29T15:49:03;5.32;;;1.42;;
38549;SDS011;24322;52.004;5.948;2022-07-29T15:51:30;2.67;;;1.10;;
38549;SDS011;24322;52.004;5.948;2022-07-29T15:53:56;2.45;;;1.25;;
38549;SDS011;24322;52.004;5.948;2022-07-29T15:56:22;5.32;;;1.42;;
38549;SDS011;24322;52.004;5.948;2022-07-29T15:58:48;3.83;;;1.30;;
38549;SDS011;24322;52.004;5.948;2022-07-29T16:01:15;1.83;;;1.02;;
38549;SDS011;24322;52.004;5.948;2022-07-29T16:03:40;3.90;;;1.52;;
38549;SDS011;24322;52.004;5.948;2022-07-29T16:06:06;3.90;;;0.93;;
38549;SDS011;24322;52.004;5.948;2022-07-29T16:08:32;3.00;;;1.20;;
38549;SDS011;24322;52.004;5.948;2022-07-29T16:10:57;4.50;;;1.25;;